createdAt,value
2023-04-03T00:00:36.677Z,6.90
2023-04-03T00:01:36.518Z,11.00
2023-04-03T00:02:36.628Z,8.20
2023-04-03T00:03:36.497Z,9.30
2023-04-03T00:04:36.518Z,8.80
2023-04-03T00:05:36.477Z,8.90
2023-04-03T00:06:36.460Z,9.30
2023-04-03T00:07:36.454Z,9.10
2023-04-03T00:08:36.439Z,11.70
2023-04-03T00:09:36.430Z,10.40
2023-04-03T00:10:36.550Z,10.50
2023-04-03T00:11:36.413Z,8.50
2023-04-03T00:12:36.400Z,9.20
2023-04-03T00:13:36.384Z,8.50
2023-04-03T00:14:36.375Z,6.60
2023-04-03T00:15:36.369Z,12.80
2023-04-03T00:16:36.364Z,7.50
2023-04-03T00:17:36.362Z,11.70
2023-04-03T00:18:36.354Z,9.80
2023-04-03T00:19:36.328Z,7.90
2023-04-03T00:20:36.533Z,9.50
2023-04-03T00:21:36.296Z,10.20
2023-04-03T00:22:36.290Z,11.10
2023-04-03T00:23:36.274Z,10.20
2023-04-03T00:24:36.270Z,9.20
2023-04-03T00:25:36.257Z,10.00
2023-04-03T00:26:36.248Z,7.80
2023-04-03T00:27:36.237Z,9.30
2023-04-03T00:28:36.217Z,10.40
2023-04-03T00:29:36.206Z,8.70
2023-04-03T00:30:36.361Z,9.60
2023-04-03T00:31:36.194Z,11.00
2023-04-03T00:32:36.196Z,8.60
2023-04-03T00:33:36.162Z,13.20
2023-04-03T00:34:36.174Z,10.80
2023-04-03T00:35:36.287Z,8.00
2023-04-03T00:36:36.200Z,10.50
2023-04-03T00:37:36.125Z,9.00
2023-04-03T00:38:36.105Z,9.10
2023-04-03T00:39:36.179Z,12.80
2023-04-03T00:40:36.376Z,9.10
2023-04-03T00:41:36.075Z,11.20
2023-04-03T00:42:36.061Z,11.00
2023-04-03T00:43:36.055Z,9.20
2023-04-03T00:44:36.064Z,12.00
2023-04-03T00:45:36.031Z,11.90
2023-04-03T00:46:36.056Z,9.30
2023-04-03T00:47:36.120Z,8.60
2023-04-03T00:48:36.039Z,9.00
2023-04-03T00:49:36.060Z,12.10
2023-04-03T00:50:36.333Z,12.90
2023-04-03T00:51:35.964Z,10.80
2023-04-03T00:52:35.953Z,11.10
2023-04-03T00:53:35.941Z,9.80
2023-04-03T00:54:35.931Z,9.80
2023-04-03T00:55:35.924Z,9.40
2023-04-03T00:56:35.906Z,13.00
2023-04-03T00:57:35.965Z,10.60
2023-04-03T00:58:35.884Z,9.40
2023-04-03T00:59:35.925Z,9.60
2023-04-03T01:00:36.231Z,10.00
2023-04-03T01:01:35.870Z,11.40
2023-04-03T01:02:35.851Z,11.50
2023-04-03T01:03:35.833Z,13.60
2023-04-03T01:04:35.949Z,10.20
2023-04-03T01:05:35.809Z,11.40
2023-04-03T01:06:35.824Z,13.20
2023-04-03T01:07:35.787Z,10.40
2023-04-03T01:08:35.777Z,8.20
2023-04-03T01:09:35.767Z,11.20
2023-04-03T01:10:36.021Z,11.30
2023-04-03T01:11:35.743Z,10.30
2023-04-03T01:12:35.736Z,13.50
2023-04-03T01:13:35.728Z,16.10
2023-04-03T01:14:35.711Z,11.00
2023-04-03T01:15:35.701Z,14.00
2023-04-03T01:16:35.726Z,13.70
2023-04-03T01:17:35.751Z,13.70
2023-04-03T01:18:35.665Z,9.40
2023-04-03T01:19:35.663Z,9.90
2023-04-03T01:20:35.927Z,10.90
2023-04-03T01:21:35.640Z,9.40
2023-04-03T01:22:35.648Z,16.70
2023-04-03T01:23:35.613Z,9.90
2023-04-03T01:24:35.601Z,11.10
2023-04-03T01:25:35.589Z,14.60
2023-04-03T01:26:35.580Z,10.40
2023-04-03T01:27:35.568Z,11.80
2023-04-03T01:28:35.559Z,11.70
2023-04-03T01:29:35.549Z,11.90
2023-04-03T01:30:35.771Z,9.40
2023-04-03T01:31:35.573Z,10.10
2023-04-03T01:32:35.594Z,15.20
2023-04-03T01:33:35.505Z,12.80
2023-04-03T01:34:35.499Z,12.20
2023-04-03T01:35:35.499Z,13.20
2023-04-03T01:36:35.466Z,12.50
2023-04-03T01:37:35.457Z,15.60
2023-04-03T01:38:35.473Z,16.10
2023-04-03T01:39:35.439Z,11.10
2023-04-03T01:40:35.661Z,12.80
2023-04-03T01:41:35.413Z,17.60
2023-04-03T01:42:35.403Z,12.10
2023-04-03T01:43:35.388Z,11.60
2023-04-03T01:44:35.398Z,13.50
2023-04-03T01:45:35.399Z,12.60
2023-04-03T01:46:35.360Z,11.60
2023-04-03T01:47:35.377Z,11.30
2023-04-03T01:48:35.344Z,10.90
2023-04-03T01:49:35.322Z,11.50
2023-04-03T01:50:35.685Z,12.90
2023-04-03T01:51:35.298Z,11.30
2023-04-03T01:52:35.292Z,10.80
2023-04-03T01:53:35.279Z,12.70
2023-04-03T01:54:35.303Z,15.50
2023-04-03T01:55:35.259Z,12.40
2023-04-03T01:56:35.245Z,10.20
2023-04-03T01:57:35.284Z,11.40
2023-04-03T01:58:35.223Z,14.40
2023-04-03T01:59:35.223Z,11.10
2023-04-03T02:00:35.505Z,12.10
2023-04-03T02:01:35.233Z,11.50
2023-04-03T02:02:35.227Z,14.20
2023-04-03T02:03:35.266Z,13.70
2023-04-03T02:04:35.166Z,13.80
2023-04-03T02:05:35.148Z,12.80
2023-04-03T02:06:35.136Z,12.90
2023-04-03T02:07:35.131Z,13.20
2023-04-03T02:08:35.113Z,14.20
2023-04-03T02:09:35.108Z,10.00
2023-04-03T02:10:35.360Z,14.10
2023-04-03T02:11:35.095Z,11.70
2023-04-03T02:12:35.082Z,11.90
2023-04-03T02:13:35.102Z,12.50
2023-04-03T02:14:35.082Z,10.30
2023-04-03T02:15:35.063Z,13.10
2023-04-03T02:16:35.057Z,13.00
2023-04-03T02:17:35.043Z,8.90
2023-04-03T02:18:35.023Z,10.00
2023-04-03T02:19:34.986Z,11.30
2023-04-03T02:20:35.272Z,11.20
2023-04-03T02:21:34.967Z,10.10
2023-04-03T02:22:34.967Z,12.60
2023-04-03T02:23:34.945Z,14.00
2023-04-03T02:24:34.933Z,13.50
2023-04-03T02:25:36.629Z,16.30
2023-04-03T02:26:34.936Z,12.60
2023-04-03T02:27:34.902Z,12.40
2023-04-03T02:28:34.892Z,10.10
2023-04-03T02:29:34.882Z,15.60
2023-04-03T02:30:35.174Z,8.90
2023-04-03T02:31:34.891Z,12.20
2023-04-03T02:32:34.873Z,11.80
2023-04-03T02:33:34.833Z,13.70
2023-04-03T02:34:34.833Z,11.90
2023-04-03T02:35:34.844Z,15.80
2023-04-03T02:36:34.800Z,10.90
2023-04-03T02:37:34.806Z,16.80
2023-04-03T02:38:34.817Z,12.90
2023-04-03T02:39:34.765Z,12.90
2023-04-03T02:40:34.988Z,11.50
2023-04-03T02:41:34.747Z,9.40
2023-04-03T02:42:34.761Z,13.90
2023-04-03T02:43:34.724Z,13.40
2023-04-03T02:44:34.717Z,15.40
2023-04-03T02:45:34.698Z,15.50
2023-04-03T02:46:34.776Z,11.70
2023-04-03T02:47:34.693Z,10.20
2023-04-03T02:48:34.675Z,14.70
2023-04-03T02:49:34.656Z,14.80
2023-04-03T02:50:34.919Z,12.10
2023-04-03T02:51:34.647Z,15.40
2023-04-03T02:52:34.631Z,14.80
2023-04-03T02:53:34.616Z,12.80
2023-04-03T02:54:34.612Z,15.90
2023-04-03T02:55:34.599Z,11.70
2023-04-03T02:56:34.594Z,17.20
2023-04-03T02:57:34.619Z,14.70
2023-04-03T02:58:34.593Z,15.00
2023-04-03T02:59:34.554Z,13.40
2023-04-03T03:00:34.781Z,10.10
2023-04-03T03:01:34.593Z,13.90
2023-04-03T03:02:34.544Z,15.70
2023-04-03T03:03:34.503Z,14.10
2023-04-03T03:04:34.553Z,14.20
2023-04-03T03:05:34.482Z,16.80
2023-04-03T03:06:34.473Z,13.90
2023-04-03T03:07:34.459Z,14.60
2023-04-03T03:08:34.449Z,16.40
2023-04-03T03:09:34.437Z,20.30
2023-04-03T03:10:34.732Z,12.40
2023-04-03T03:11:34.415Z,12.20
2023-04-03T03:12:34.405Z,15.40
2023-04-03T03:13:34.395Z,13.10
2023-04-03T03:14:34.408Z,13.40
2023-04-03T03:15:34.371Z,15.30
2023-04-03T03:16:34.364Z,16.00
2023-04-03T03:17:34.438Z,17.10
2023-04-03T03:18:34.336Z,12.60
2023-04-03T03:19:34.326Z,16.70
2023-04-03T03:20:34.582Z,17.80
2023-04-03T03:21:34.320Z,13.20
2023-04-03T03:22:34.293Z,15.30
2023-04-03T03:23:34.300Z,15.10
2023-04-03T03:24:34.270Z,14.90
2023-04-03T03:25:34.286Z,15.70
2023-04-03T03:26:34.252Z,14.00
2023-04-03T03:27:34.240Z,16.10
2023-04-03T03:28:34.225Z,15.10
2023-04-03T03:29:34.214Z,14.70
2023-04-03T03:30:34.225Z,15.60
2023-04-03T03:31:34.264Z,19.80
2023-04-03T03:32:34.221Z,15.40
2023-04-03T03:33:34.169Z,14.70
2023-04-03T03:34:34.159Z,16.90
2023-04-03T03:35:34.168Z,14.60
2023-04-03T03:36:34.134Z,17.80
2023-04-03T03:37:34.127Z,18.30
2023-04-03T03:38:34.122Z,18.50
2023-04-03T03:39:34.099Z,12.10
2023-04-03T03:40:34.091Z,14.70
2023-04-03T03:41:34.076Z,19.40
2023-04-03T03:42:34.068Z,15.10
2023-04-03T03:43:34.061Z,14.30
2023-04-03T03:44:34.044Z,14.20
2023-04-03T03:45:34.095Z,14.40
2023-04-03T03:46:34.216Z,15.10
2023-04-03T03:47:34.035Z,16.30
2023-04-03T03:48:34.024Z,15.00
2023-04-03T03:49:33.987Z,19.90
2023-04-03T03:50:33.982Z,21.20
2023-04-03T03:51:33.969Z,17.70
2023-04-03T03:52:33.957Z,14.90
2023-04-03T03:53:33.949Z,15.20
2023-04-03T03:54:33.943Z,17.70
2023-04-03T03:55:34.025Z,15.20
2023-04-03T03:56:33.923Z,17.40
2023-04-03T03:57:33.920Z,16.60
2023-04-03T03:58:33.896Z,17.70
2023-04-03T03:59:33.878Z,17.70
2023-04-03T04:00:33.872Z,19.30
2023-04-03T04:01:33.916Z,14.60
2023-04-03T04:02:33.974Z,17.60
2023-04-03T04:03:33.972Z,15.80
2023-04-03T04:04:33.827Z,19.60
2023-04-03T04:05:33.831Z,14.20
2023-04-03T04:06:33.808Z,16.70
2023-04-03T04:07:33.790Z,17.80
2023-04-03T04:08:33.783Z,16.90
2023-04-03T04:09:33.767Z,21.80
2023-04-03T04:10:33.763Z,20.70
2023-04-03T04:11:33.750Z,20.30
2023-04-03T04:12:33.737Z,14.10
2023-04-03T04:13:33.724Z,21.90
2023-04-03T04:14:33.717Z,19.10
2023-04-03T04:15:33.702Z,14.70
2023-04-03T04:16:33.753Z,15.60
2023-04-03T04:17:33.717Z,20.00
2023-04-03T04:18:33.699Z,16.70
2023-04-03T04:19:33.666Z,17.00
2023-04-03T04:20:33.654Z,17.60
2023-04-03T04:21:33.634Z,19.10
2023-04-03T04:22:33.636Z,17.10
2023-04-03T04:23:33.631Z,21.40
2023-04-03T04:24:33.608Z,16.60
2023-04-03T04:25:33.590Z,20.20
2023-04-03T04:26:33.580Z,18.80
2023-04-03T04:27:33.566Z,21.30
2023-04-03T04:28:33.558Z,18.80
2023-04-03T04:29:33.543Z,14.40
2023-04-03T04:30:33.538Z,17.50
2023-04-03T04:31:33.548Z,16.20
2023-04-03T04:32:33.545Z,18.90
2023-04-03T04:33:33.498Z,19.10
2023-04-03T04:34:33.602Z,16.50
2023-04-03T04:35:33.526Z,26.40
2023-04-03T04:36:33.522Z,14.50
2023-04-03T04:37:33.454Z,19.30
2023-04-03T04:38:33.456Z,19.20
2023-04-03T04:39:33.434Z,20.50
2023-04-03T04:40:33.424Z,16.40
2023-04-03T04:41:33.412Z,18.40
2023-04-03T04:42:33.402Z,17.30
2023-04-03T04:43:33.388Z,17.50
2023-04-03T04:44:33.377Z,20.10
2023-04-03T04:45:33.369Z,16.60
2023-04-03T04:46:33.422Z,17.00
2023-04-03T04:47:33.364Z,18.10
2023-04-03T04:48:33.342Z,19.60
2023-04-03T04:49:33.324Z,21.40
2023-04-03T04:50:33.341Z,18.40
2023-04-03T04:51:41.042Z,19.80
2023-04-03T04:52:34.326Z,14.70
2023-04-03T04:53:33.280Z,21.20
2023-04-03T04:54:33.269Z,16.00
2023-04-03T04:55:33.265Z,19.40
2023-04-03T04:56:33.244Z,18.10
2023-04-03T04:57:33.352Z,19.60
2023-04-03T04:58:33.223Z,18.40
2023-04-03T04:59:33.210Z,16.00
2023-04-03T05:00:33.223Z,24.20
2023-04-03T05:01:33.211Z,15.80
2023-04-03T05:02:33.211Z,15.80
2023-04-03T05:03:33.175Z,21.30
2023-04-03T05:04:33.161Z,21.60
2023-04-03T05:05:33.148Z,19.60
2023-04-03T05:06:33.161Z,23.80
2023-04-03T05:07:33.124Z,22.60
2023-04-03T05:08:33.114Z,16.60
2023-04-03T05:09:33.103Z,24.10
2023-04-03T05:10:33.106Z,19.80
2023-04-03T05:11:33.080Z,22.60
2023-04-03T05:12:33.068Z,21.50
2023-04-03T05:13:33.057Z,20.70
2023-04-03T05:14:33.046Z,21.90
2023-04-03T05:15:33.036Z,19.40
2023-04-03T05:16:33.141Z,19.40
2023-04-03T05:17:33.022Z,23.60
2023-04-03T05:18:33.008Z,20.10
2023-04-03T05:19:33.010Z,25.20
2023-04-03T05:20:33.004Z,22.30
2023-04-03T05:21:33.033Z,22.20
2023-04-03T05:22:32.991Z,20.40
2023-04-03T05:23:32.948Z,26.20
2023-04-03T05:24:32.939Z,22.10
2023-04-03T05:25:32.924Z,25.80
2023-04-03T05:26:32.921Z,29.20
2023-04-03T05:27:32.903Z,22.30
2023-04-03T05:28:32.916Z,24.50
2023-04-03T05:29:32.887Z,24.20
2023-04-03T05:30:32.873Z,24.20
2023-04-03T05:31:32.873Z,24.60
2023-04-03T05:32:32.870Z,21.20
2023-04-03T05:33:32.844Z,22.10
2023-04-03T05:34:32.830Z,24.40
2023-04-03T05:35:32.816Z,18.80
2023-04-03T05:36:32.807Z,23.90
2023-04-03T05:37:32.803Z,18.50
2023-04-03T05:38:32.805Z,20.70
2023-04-03T05:39:32.777Z,20.60
2023-04-03T05:40:32.760Z,18.00
2023-04-03T05:41:32.748Z,19.50
2023-04-03T05:42:32.741Z,16.20
2023-04-03T05:43:32.724Z,19.10
2023-04-03T05:44:32.714Z,21.10
2023-04-03T05:45:32.704Z,18.90
2023-04-03T05:46:32.691Z,18.50
2023-04-03T05:47:32.739Z,21.20
2023-04-03T05:48:32.671Z,20.90
2023-04-03T05:49:32.679Z,17.00
2023-04-03T05:50:32.700Z,13.80
2023-04-03T05:51:32.634Z,15.30
2023-04-03T05:52:32.626Z,17.50
2023-04-03T05:53:32.609Z,18.70
2023-04-03T05:54:32.627Z,17.00
2023-04-03T05:55:32.588Z,15.90
2023-04-03T05:56:32.582Z,17.80
2023-04-03T05:57:32.697Z,16.30
2023-04-03T05:58:32.555Z,16.70
2023-04-03T05:59:32.545Z,13.50
2023-04-03T06:00:32.533Z,17.00
2023-04-03T06:01:32.524Z,14.50
2023-04-03T06:02:32.635Z,14.60
2023-04-03T06:03:32.673Z,15.50
2023-04-03T06:04:32.581Z,14.60
2023-04-03T06:05:32.482Z,12.00
2023-04-03T06:06:32.488Z,15.10
2023-04-03T06:07:32.459Z,12.90
2023-04-03T06:08:32.450Z,11.00
2023-04-03T06:09:32.446Z,10.40
2023-04-03T06:10:32.450Z,14.00
2023-04-03T06:11:32.416Z,15.10
2023-04-03T06:12:32.405Z,11.40
2023-04-03T06:13:32.395Z,12.20
2023-04-03T06:14:32.384Z,14.10
2023-04-03T06:15:32.385Z,11.00
2023-04-03T06:16:32.420Z,11.70
2023-04-03T06:17:32.366Z,11.60
2023-04-03T06:18:32.338Z,12.50
2023-04-03T06:19:32.336Z,10.00
2023-04-03T06:20:32.308Z,12.10
2023-04-03T06:21:32.307Z,11.00
2023-04-03T06:22:32.292Z,12.20
2023-04-03T06:23:32.284Z,11.60
2023-04-03T06:24:32.276Z,13.90
2023-04-03T06:25:32.256Z,12.10
2023-04-03T06:26:32.270Z,11.50
2023-04-03T06:27:32.235Z,11.00
2023-04-03T06:28:32.223Z,13.00
2023-04-03T06:29:32.224Z,11.30
2023-04-03T06:30:32.209Z,9.80
2023-04-03T06:31:32.299Z,11.50
2023-04-03T06:32:32.219Z,10.70
2023-04-03T06:33:32.171Z,12.20
2023-04-03T06:34:32.157Z,12.00
2023-04-03T06:35:32.189Z,11.60
2023-04-03T06:36:32.132Z,9.00
2023-04-03T06:37:32.123Z,11.00
2023-04-03T06:38:32.265Z,11.10
2023-04-03T06:39:32.102Z,9.90
2023-04-03T06:40:32.091Z,9.60
2023-04-03T06:41:32.082Z,9.80
2023-04-03T06:42:32.090Z,8.90
2023-04-03T06:43:33.216Z,10.30
2023-04-03T06:44:32.049Z,9.80
2023-04-03T06:45:32.043Z,8.70
2023-04-03T06:46:32.059Z,9.80
2023-04-03T06:47:32.074Z,8.20
2023-04-03T06:48:32.012Z,7.70
2023-04-03T06:49:31.990Z,8.50
2023-04-03T06:50:31.977Z,11.40
2023-04-03T06:51:31.967Z,9.00
2023-04-03T06:52:31.959Z,7.70
2023-04-03T06:53:31.954Z,10.60
2023-04-03T06:54:31.936Z,9.40
2023-04-03T06:55:31.922Z,8.70
2023-04-03T06:56:31.920Z,6.40
2023-04-03T06:57:31.944Z,8.50
2023-04-03T06:58:31.928Z,9.90
2023-04-03T06:59:31.879Z,10.60
2023-04-03T07:00:31.872Z,8.70
2023-04-03T07:01:31.918Z,9.30
2023-04-03T07:02:31.871Z,10.00
2023-04-03T07:03:32.653Z,7.60
2023-04-03T07:04:31.882Z,10.50
2023-04-03T07:05:31.810Z,9.90
2023-04-03T07:06:31.801Z,11.10
2023-04-03T07:07:31.794Z,7.70
2023-04-03T07:08:32.002Z,8.90
2023-04-03T07:09:31.776Z,9.30
2023-04-03T07:10:31.751Z,8.40
2023-04-03T07:11:31.743Z,9.20
2023-04-03T07:12:31.734Z,8.70
2023-04-03T07:13:31.728Z,8.20
2023-04-03T07:14:31.738Z,11.00
2023-04-03T07:15:31.699Z,7.90
2023-04-03T07:16:31.912Z,9.30
2023-04-03T07:17:31.716Z,10.70
2023-04-03T07:18:31.662Z,7.00
2023-04-03T07:19:31.664Z,7.90
2023-04-03T07:20:31.648Z,11.50
2023-04-03T07:21:31.632Z,8.50
2023-04-03T07:22:31.628Z,9.30
2023-04-03T07:23:31.617Z,8.60
2023-04-03T07:24:31.600Z,9.00
2023-04-03T07:25:31.592Z,7.40
2023-04-03T07:26:31.571Z,8.00
2023-04-03T07:27:31.560Z,8.80
2023-04-03T07:28:31.556Z,8.50
2023-04-03T07:29:31.546Z,7.80
2023-04-03T07:30:31.573Z,11.50
2023-04-03T07:31:31.548Z,8.40
2023-04-03T07:32:31.565Z,9.50
2023-04-03T07:33:31.495Z,9.10
2023-04-03T07:34:31.489Z,10.80
2023-04-03T07:35:31.489Z,7.20
2023-04-03T07:36:31.462Z,7.90
2023-04-03T07:37:31.452Z,9.80
2023-04-03T07:38:31.437Z,11.40
2023-04-03T07:39:31.443Z,10.60
2023-04-03T07:40:31.431Z,8.60
2023-04-03T07:41:31.417Z,9.20
2023-04-03T07:42:31.407Z,9.50
2023-04-03T07:43:31.394Z,9.10
2023-04-03T07:44:31.375Z,8.70
2023-04-03T07:45:31.426Z,9.30
2023-04-03T07:46:31.434Z,8.10
2023-04-03T07:47:31.370Z,7.00
2023-04-03T07:48:31.332Z,7.70
2023-04-03T07:49:31.325Z,8.10
2023-04-03T07:50:31.316Z,7.80
2023-04-03T07:51:31.294Z,9.40
2023-04-03T07:52:31.301Z,7.40
2023-04-03T07:53:31.273Z,9.80
2023-04-03T07:54:31.260Z,7.40
2023-04-03T07:55:32.498Z,7.70
2023-04-03T07:56:31.236Z,9.60
2023-04-03T07:57:31.286Z,7.90
2023-04-03T07:58:31.222Z,8.40
2023-04-03T07:59:31.220Z,7.60
2023-04-03T08:00:31.200Z,9.70
2023-04-03T08:01:31.194Z,9.80
2023-04-03T08:02:31.243Z,8.60
2023-04-03T08:03:31.427Z,6.90
2023-04-03T08:04:31.263Z,11.00
2023-04-03T08:05:31.142Z,8.20
2023-04-03T08:06:45.039Z,12.70
2023-04-03T08:07:31.110Z,7.20
2023-04-03T08:08:31.107Z,8.40
2023-04-03T08:09:31.124Z,8.70
2023-04-03T08:10:31.103Z,10.00
2023-04-03T08:11:31.078Z,9.20
2023-04-03T08:12:31.051Z,8.90
2023-04-03T08:13:31.045Z,6.90
2023-04-03T08:14:31.037Z,7.20
2023-04-03T08:15:31.024Z,8.00
2023-04-03T08:16:31.076Z,6.40
2023-04-03T08:17:31.020Z,6.50
2023-04-03T08:18:31.048Z,4.70
2023-04-03T08:19:30.981Z,6.50
2023-04-03T08:20:30.966Z,6.50
2023-04-03T08:21:30.960Z,8.30
2023-04-03T08:22:30.949Z,6.00
2023-04-03T08:23:30.934Z,8.80
2023-04-03T08:24:30.927Z,5.40
2023-04-03T08:25:30.931Z,6.20
2023-04-03T08:26:31.192Z,6.20
2023-04-03T08:27:30.885Z,7.90
2023-04-03T08:28:30.872Z,8.40
2023-04-03T08:29:32.066Z,6.50
2023-04-03T08:30:30.857Z,6.60
2023-04-03T08:31:30.842Z,5.90
2023-04-03T08:32:30.925Z,8.80
2023-04-03T08:33:30.827Z,4.90
2023-04-03T08:34:30.833Z,4.80
2023-04-03T08:35:30.966Z,5.90
2023-04-03T08:36:30.784Z,6.70
2023-04-03T08:37:30.776Z,5.70
2023-04-03T08:38:30.765Z,3.80
2023-04-03T08:39:30.784Z,5.50
2023-04-03T08:40:30.748Z,5.70
2023-04-03T08:41:30.732Z,4.10
2023-04-03T08:42:30.723Z,6.70
2023-04-03T08:43:30.712Z,6.50
2023-04-03T08:44:30.699Z,5.10
2023-04-03T08:45:30.691Z,7.40
2023-04-03T08:46:30.718Z,5.00
2023-04-03T08:47:30.697Z,6.30
2023-04-03T08:48:30.658Z,5.80
2023-04-03T08:49:30.681Z,6.10
2023-04-03T08:50:30.753Z,4.90
2023-04-03T08:51:30.618Z,6.00
2023-04-03T08:52:30.607Z,5.80
2023-04-03T08:53:30.596Z,6.60
2023-04-03T08:54:30.588Z,4.20
2023-04-03T08:55:30.579Z,6.60
2023-04-03T08:56:30.563Z,5.90
2023-04-03T08:57:30.788Z,6.00
2023-04-03T08:58:30.546Z,6.90
2023-04-03T08:59:30.531Z,3.20
2023-04-03T09:00:30.520Z,4.90
2023-04-03T09:01:30.512Z,5.80
2023-04-03T09:02:30.520Z,6.60
2023-04-03T09:03:30.511Z,6.40
2023-04-03T09:04:30.478Z,5.10
2023-04-03T09:05:30.468Z,6.20
2023-04-03T09:06:30.575Z,4.20
2023-04-03T09:07:30.452Z,4.60
2023-04-03T09:08:30.439Z,4.40
2023-04-03T09:09:30.423Z,7.00
2023-04-03T09:10:30.407Z,5.60
2023-04-03T09:11:30.577Z,5.20
2023-04-03T09:12:30.383Z,5.50
2023-04-03T09:13:30.376Z,5.70
2023-04-03T09:14:30.363Z,4.90
2023-04-03T09:15:38.526Z,5.00
2023-04-03T09:16:30.420Z,5.80
2023-04-03T09:17:30.330Z,7.30
2023-04-03T09:18:30.316Z,6.30
2023-04-03T09:19:30.370Z,6.90
2023-04-03T09:20:30.298Z,5.20
2023-04-03T09:21:30.283Z,5.10
2023-04-03T09:22:32.705Z,6.60
2023-04-03T09:23:30.268Z,5.40
2023-04-03T09:24:30.249Z,4.40
2023-04-03T09:25:31.710Z,5.40
2023-04-03T09:26:30.494Z,7.10
2023-04-03T09:27:30.223Z,6.60
2023-04-03T09:28:33.129Z,5.80
2023-04-03T09:29:31.226Z,6.20
2023-04-03T09:30:30.200Z,5.60
2023-04-03T09:31:30.226Z,5.50
2023-04-03T09:32:30.208Z,5.00
2023-04-03T09:33:30.156Z,4.60
2023-04-03T09:34:30.137Z,4.60
2023-04-03T09:35:40.550Z,6.90
2023-04-03T09:36:31.186Z,5.80
2023-04-03T09:37:30.109Z,4.30
2023-04-03T09:38:30.214Z,4.20
2023-04-03T09:39:30.104Z,4.50
2023-04-03T09:40:30.076Z,5.90
2023-04-03T09:41:30.066Z,4.90
2023-04-03T09:42:30.049Z,4.30
2023-04-03T09:43:30.040Z,3.50
2023-04-03T09:44:30.029Z,4.40
2023-04-03T09:45:30.020Z,6.00
2023-04-03T09:46:30.058Z,4.90
2023-04-03T09:47:30.023Z,4.40
2023-04-03T09:48:29.982Z,3.80
2023-04-03T09:49:29.993Z,3.30
2023-04-03T09:50:29.960Z,3.10
2023-04-03T09:51:29.955Z,3.80
2023-04-03T09:52:29.951Z,6.20
2023-04-03T09:53:29.941Z,5.90
2023-04-03T09:54:30.038Z,5.30
2023-04-03T09:55:29.982Z,3.90
2023-04-03T09:56:29.926Z,3.50
2023-04-03T09:57:29.963Z,2.90
2023-04-03T09:58:42.742Z,4.90
2023-04-03T09:59:29.872Z,5.40
2023-04-03T10:00:29.877Z,4.00
2023-04-03T10:01:29.975Z,3.90
2023-04-03T10:02:29.867Z,3.40
2023-04-03T10:03:29.818Z,4.50
2023-04-03T10:04:29.847Z,4.50
2023-04-03T10:05:29.801Z,5.60
2023-04-03T10:06:29.783Z,2.90
2023-04-03T10:07:29.771Z,4.10
2023-04-03T10:08:29.784Z,2.30
2023-04-03T10:09:29.754Z,3.50
2023-04-03T10:10:29.877Z,3.90
2023-04-03T10:11:29.735Z,3.80
2023-04-03T10:12:29.716Z,3.90
2023-04-03T10:13:30.876Z,4.40
2023-04-03T10:14:29.703Z,5.50
2023-04-03T10:15:29.704Z,4.70
2023-04-03T10:16:29.751Z,6.70
2023-04-03T10:17:29.702Z,4.50
2023-04-03T10:18:29.881Z,6.10
2023-04-03T10:19:29.682Z,4.70
2023-04-03T10:20:29.647Z,4.70
2023-04-03T10:21:29.643Z,2.40
2023-04-03T10:22:29.605Z,2.30
2023-04-03T10:23:29.594Z,3.50
2023-04-03T10:24:29.583Z,3.10
2023-04-03T10:25:29.573Z,3.20
2023-04-03T10:26:29.683Z,5.30
2023-04-03T10:27:29.556Z,4.00
2023-04-03T10:28:29.546Z,4.50
2023-04-03T10:29:29.539Z,6.50
2023-04-03T10:30:29.518Z,4.10
2023-04-03T10:31:29.582Z,4.40
2023-04-03T10:32:29.530Z,5.30
2023-04-03T10:33:29.482Z,3.70
2023-04-03T10:34:29.474Z,4.30
2023-04-03T10:35:29.467Z,8.00
2023-04-03T10:36:29.448Z,5.30
2023-04-03T10:37:29.449Z,4.60
2023-04-03T10:38:29.430Z,4.00
2023-04-03T10:39:29.438Z,4.50
2023-04-03T10:40:29.405Z,3.80
2023-04-03T10:41:29.407Z,4.30
2023-04-03T10:42:29.531Z,5.10
2023-04-03T10:43:29.385Z,4.20
2023-04-03T10:44:29.374Z,5.30
2023-04-03T10:45:29.349Z,3.70
2023-04-03T10:46:29.474Z,4.90
2023-04-03T10:47:29.723Z,4.00
2023-04-03T10:48:29.319Z,4.60
2023-04-03T10:49:29.306Z,5.50
2023-04-03T10:50:29.297Z,3.80
2023-04-03T10:51:29.283Z,4.50
2023-04-03T10:52:29.278Z,4.80
2023-04-03T10:53:29.264Z,3.30
2023-04-03T10:54:29.254Z,4.50
2023-04-03T10:55:29.244Z,2.70
2023-04-03T10:56:29.238Z,4.20
2023-04-03T10:57:29.237Z,4.20
2023-04-03T10:58:29.336Z,4.10
2023-04-03T10:59:29.202Z,3.40
2023-04-03T11:00:29.193Z,3.90
2023-04-03T11:01:29.214Z,4.30
2023-04-03T11:02:31.247Z,3.50
2023-04-03T11:03:29.174Z,4.90
2023-04-03T11:04:29.150Z,3.70
2023-04-03T11:05:29.154Z,4.00
2023-04-03T11:06:29.139Z,4.90
2023-04-03T11:07:29.118Z,3.40
2023-04-03T11:08:29.138Z,3.80
2023-04-03T11:09:29.097Z,3.40
2023-04-03T11:10:29.086Z,7.70
2023-04-03T11:11:29.070Z,6.00
2023-04-03T11:12:29.059Z,3.50
2023-04-03T11:13:29.067Z,3.80
2023-04-03T11:14:29.079Z,3.80
2023-04-03T11:15:29.033Z,4.60
2023-04-03T11:16:30.594Z,5.70
2023-04-03T11:17:29.045Z,3.60
2023-04-03T11:18:28.997Z,4.80
2023-04-03T11:19:28.984Z,4.60
2023-04-03T11:20:28.982Z,2.90
2023-04-03T11:21:28.961Z,5.10
2023-04-03T11:22:28.950Z,3.70
2023-04-03T11:23:35.517Z,3.30
2023-04-03T11:24:28.931Z,3.40
2023-04-03T11:25:28.916Z,3.90
2023-04-03T11:26:28.924Z,3.50
2023-04-03T11:27:28.900Z,4.90
2023-04-03T11:28:28.922Z,3.30
2023-04-03T11:30:28.984Z,5.90
2023-04-03T11:31:28.891Z,3.50
2023-04-03T11:32:28.898Z,5.80
2023-04-03T11:33:28.838Z,3.30
2023-04-03T11:34:28.861Z,4.50
2023-04-03T11:35:28.811Z,4.50
2023-04-03T11:36:32.528Z,5.80
2023-04-03T11:37:28.784Z,4.80
2023-04-03T11:38:28.773Z,3.60
2023-04-03T11:39:28.764Z,3.20
2023-04-03T11:40:28.751Z,4.60
2023-04-03T11:41:28.752Z,3.10
2023-04-03T11:42:28.841Z,4.30
2023-04-03T11:43:28.718Z,4.40
2023-04-03T11:44:28.710Z,3.90
2023-04-03T11:45:28.698Z,4.00
2023-04-03T11:46:28.862Z,6.20
2023-04-03T11:47:28.705Z,3.40
2023-04-03T11:48:28.760Z,3.50
2023-04-03T11:49:28.652Z,5.70
2023-04-03T11:50:28.641Z,3.30
2023-04-03T11:51:28.646Z,4.50
2023-04-03T11:52:28.615Z,4.00
2023-04-03T11:53:28.612Z,5.50
2023-04-03T11:54:35.218Z,5.60
2023-04-03T11:55:29.613Z,4.40
2023-04-03T11:56:28.575Z,3.60
2023-04-03T11:57:28.616Z,4.90
2023-04-03T11:58:28.565Z,4.20
2023-04-03T11:59:28.561Z,3.80
2023-04-03T12:00:28.526Z,5.10
2023-04-03T12:01:28.518Z,3.70
2023-04-03T12:02:28.653Z,4.40
2023-04-03T12:03:28.678Z,6.00
2023-04-03T12:04:28.701Z,5.60
2023-04-03T12:05:28.488Z,3.90
2023-04-03T12:06:28.457Z,3.70
2023-04-03T12:07:28.447Z,4.80
2023-04-03T12:08:28.448Z,5.00
2023-04-03T12:09:28.419Z,3.70
2023-04-03T12:10:32.394Z,4.60
2023-04-03T12:11:28.465Z,4.10
2023-04-03T12:12:28.432Z,4.90
2023-04-03T12:13:28.395Z,5.70
2023-04-03T12:14:28.394Z,4.60
2023-04-03T12:15:28.368Z,3.70
2023-04-03T12:16:28.376Z,6.70
2023-04-03T12:17:28.372Z,5.20
2023-04-03T12:18:28.443Z,4.10
2023-04-03T12:19:39.304Z,4.10
2023-04-03T12:20:29.329Z,5.80
2023-04-03T12:21:28.286Z,4.70
2023-04-03T12:22:28.280Z,3.50
2023-04-03T12:23:28.273Z,3.20
2023-04-03T12:24:28.266Z,3.90
2023-04-03T12:25:28.249Z,3.50
2023-04-03T12:26:32.436Z,3.80
2023-04-03T12:27:29.309Z,3.40
2023-04-03T12:28:28.212Z,3.50
2023-04-03T12:29:28.202Z,5.10
2023-04-03T12:30:28.191Z,4.00
2023-04-03T12:31:28.248Z,5.10
2023-04-03T12:32:28.199Z,4.10
2023-04-03T12:33:28.177Z,4.60
2023-04-03T12:34:28.276Z,4.00
2023-04-03T12:35:28.164Z,4.00
2023-04-03T12:36:28.125Z,5.30
2023-04-03T12:37:28.124Z,4.10
2023-04-03T12:38:28.110Z,4.10
2023-04-03T12:39:28.104Z,5.40
2023-04-03T12:40:28.086Z,4.30
2023-04-03T12:41:28.077Z,6.40
2023-04-03T12:42:28.062Z,3.60
2023-04-03T12:43:28.050Z,3.60
2023-04-03T12:44:28.043Z,4.40
2023-04-03T12:45:28.053Z,3.60
2023-04-03T12:46:28.135Z,5.60
2023-04-03T12:47:28.064Z,4.70
2023-04-03T12:48:28.002Z,4.20
2023-04-03T12:49:27.989Z,3.80
2023-04-03T12:50:28.109Z,4.50
2023-04-03T12:51:27.965Z,4.10
2023-04-03T12:52:27.962Z,6.30
2023-04-03T12:53:27.943Z,4.70
2023-04-03T12:54:27.951Z,2.40
2023-04-03T12:55:27.930Z,3.10
2023-04-03T12:56:27.914Z,3.30
2023-04-03T12:57:27.958Z,5.20
2023-04-03T12:58:27.906Z,10.30
2023-04-03T12:59:27.891Z,5.60
2023-04-03T13:00:27.884Z,5.30
2023-04-03T13:01:27.896Z,4.90
2023-04-03T13:02:27.999Z,4.20
2023-04-03T13:03:28.060Z,4.20
2023-04-03T13:04:27.823Z,3.80
2023-04-03T13:05:27.813Z,5.00
2023-04-03T13:06:27.922Z,7.40
2023-04-03T13:07:27.837Z,5.70